Time;durP1;ratioP1;P1;durP2;ratioP2;P2;SDS_P1;SDS_P2;PMS_P1;PMS_P2;Temp;Humidity;BMP_temperature;BMP_pressure;BME280_temperature;BME280_humidity;BME280_pressure;Samples;Min_cycle;Max_cycle;Signal;HPM_P1;HPM_P2
2022/06/07 00:00:48;;;;;;;2.43;2.33;;;;;;;;;;4949303;28;20241;-62
2022/06/07 00:03:35;;;;;;;2.50;2.40;;;;;;;;;;4948528;28;20227;-62
2022/06/07 00:06:23;;;;;;;2.60;2.50;;;;;;;;;;4941659;28;20211;-61
2022/06/07 00:09:11;;;;;;;2.13;2.03;;;;;;;;;;4948962;28;20212;-62
2022/06/07 00:11:58;;;;;;;2.30;2.20;;;;;;;;;;4947704;28;20248;-62
2022/06/07 00:14:46;;;;;;;2.40;2.30;;;;;;;;;;4945012;28;20304;-61
2022/06/07 00:17:33;;;;;;;2.20;2.10;;;;;;;;;;4947811;29;20221;-62
2022/06/07 00:20:21;;;;;;;2.40;2.30;;;;;;;;;;4946495;29;20200;-62
2022/06/07 00:23:11;;;;;;;2.40;2.30;;;;;;;;;;4942596;28;20224;-62
2022/06/07 00:26:00;;;;;;;2.37;2.27;;;;;;;;;;4944642;28;20215;-61
2022/06/07 00:28:47;;;;;;;2.30;2.20;;;;;;;;;;4947203;29;20219;-61
2022/06/07 00:31:34;;;;;;;2.17;2.07;;;;;;;;;;4940852;29;20228;-62
2022/06/07 00:34:22;;;;;;;2.50;2.40;;;;;;;;;;4945560;28;20227;-62
2022/06/07 00:37:09;;;;;;;2.17;2.07;;;;;;;;;;4946170;28;20212;-61
2022/06/07 00:39:56;;;;;;;2.47;2.37;;;;;;;;;;4947982;28;20204;-62
2022/06/07 00:42:44;;;;;;;2.40;2.20;;;;;;;;;;4947527;28;20216;-62
2022/06/07 00:45:32;;;;;;;2.40;2.30;;;;;;;;;;4944830;29;20249;-62
2022/06/07 00:48:20;;;;;;;2.27;2.17;;;;;;;;;;4943065;28;20211;-62
2022/06/07 00:51:12;;;;;;;2.30;2.20;;;;;;;;;;4950002;29;20242;-62
2022/06/07 00:53:59;;;;;;;2.80;2.60;;;;;;;;;;4945096;28;20755;-62
2022/06/07 00:56:46;;;;;;;2.40;2.30;;;;;;;;;;4942647;29;20219;-62
2022/06/07 00:59:35;;;;;;;2.80;2.70;;;;;;;;;;4943922;29;20219;-62
2022/06/07 01:02:22;;;;;;;2.33;2.23;;;;;;;;;;4944688;28;20232;-62
2022/06/07 01:05:10;;;;;;;2.47;2.37;;;;;;;;;;4940330;29;20656;-62
2022/06/07 01:11:01;;;;;;;2.10;2.00;;;;;;;;;;4943354;29;20231;-64
2022/06/07 01:13:48;;;;;;;2.60;2.50;;;;;;;;;;4940412;29;20248;-62
2022/06/07 01:16:37;;;;;;;2.37;2.27;;;;;;;;;;4939713;29;20217;-62
2022/06/07 01:19:24;;;;;;;2.63;2.53;;;;;;;;;;4945910;29;20227;-62
2022/06/07 01:22:12;;;;;;;2.37;2.27;;;;;;;;;;4942679;28;20207;-62
2022/06/07 01:25:00;;;;;;;2.40;2.30;;;;;;;;;;4951217;29;20212;-62
2022/06/07 01:27:47;;;;;;;2.50;2.40;;;;;;;;;;4940965;28;20231;-62
2022/06/07 01:30:34;;;;;;;2.50;2.40;;;;;;;;;;4940292;28;20229;-61
2022/06/07 01:33:21;;;;;;;2.40;2.30;;;;;;;;;;4942056;28;20724;-62
2022/06/07 01:36:11;;;;;;;2.63;2.53;;;;;;;;;;4946141;28;20208;-62
2022/06/07 01:42:05;;;;;;;2.73;2.63;;;;;;;;;;4943997;28;20676;-62
2022/06/07 01:44:53;;;;;;;2.70;2.50;;;;;;;;;;4943075;28;20207;-62
2022/06/07 01:47:40;;;;;;;2.30;2.20;;;;;;;;;;4943833;29;20255;-62
2022/06/07 01:50:27;;;;;;;2.40;2.30;;;;;;;;;;4942208;29;20200;-62
2022/06/07 01:53:14;;;;;;;2.70;2.60;;;;;;;;;;4944387;28;20672;-62
2022/06/07 01:56:04;;;;;;;2.57;2.47;;;;;;;;;;4942371;28;20618;-62
2022/06/07 01:58:51;;;;;;;2.70;2.60;;;;;;;;;;4939920;29;20219;-62
2022/06/07 02:01:38;;;;;;;2.37;2.27;;;;;;;;;;4944331;28;20227;-62
2022/06/07 02:04:26;;;;;;;2.50;2.40;;;;;;;;;;4939840;28;20214;-62
2022/06/07 02:07:14;;;;;;;2.90;2.80;;;;;;;;;;4942754;28;20294;-64
2022/06/07 02:10:01;;;;;;;2.60;2.50;;;;;;;;;;4941605;28;20319;-62
2022/06/07 02:12:49;;;;;;;2.77;2.67;;;;;;;;;;4946093;28;20600;-61
2022/06/07 02:15:37;;;;;;;2.57;2.47;;;;;;;;;;4944536;28;20219;-61
2022/06/07 02:18:24;;;;;;;2.70;2.60;;;;;;;;;;4945061;28;20203;-62
2022/06/07 02:21:11;;;;;;;2.63;2.53;;;;;;;;;;4939041;28;20204;-61
2022/06/07 02:23:58;;;;;;;2.60;2.50;;;;;;;;;;4946776;28;20208;-62
2022/06/07 02:26:48;;;;;;;2.93;2.73;;;;;;;;;;4943507;28;20220;-62
2022/06/07 02:29:40;;;;;;;2.60;2.50;;;;;;;;;;4946827;28;20211;-62
2022/06/07 02:32:30;;;;;;;2.33;2.23;;;;;;;;;;4941004;28;20684;-62
2022/06/07 02:35:18;;;;;;;2.53;2.43;;;;;;;;;;4943104;28;20224;-61
2022/06/07 02:38:05;;;;;;;2.50;2.40;;;;;;;;;;4939823;29;20211;-61
2022/06/07 02:40:54;;;;;;;2.80;2.70;;;;;;;;;;4942088;29;20597;-62
2022/06/07 02:43:41;;;;;;;2.60;2.50;;;;;;;;;;4941150;28;20217;-62
2022/06/07 02:46:29;;;;;;;2.50;2.40;;;;;;;;;;4945034;28;20696;-62
2022/06/07 02:49:17;;;;;;;2.40;2.30;;;;;;;;;;4944672;28;20212;-62
2022/06/07 02:52:04;;;;;;;2.77;2.67;;;;;;;;;;4942315;29;20227;-62
2022/06/07 02:54:52;;;;;;;2.60;2.50;;;;;;;;;;4942561;29;20211;-62
2022/06/07 02:57:39;;;;;;;2.50;2.40;;;;;;;;;;4938628;28;20222;-62
2022/06/07 03:00:26;;;;;;;2.67;2.57;;;;;;;;;;4939842;29;20235;-62
2022/06/07 03:03:15;;;;;;;2.57;2.47;;;;;;;;;;4936991;28;20563;-63
2022/06/07 03:06:02;;;;;;;2.50;2.30;;;;;;;;;;4939699;29;20684;-61
2022/06/07 03:08:49;;;;;;;2.70;2.60;;;;;;;;;;4939205;28;20238;-65
2022/06/07 03:11:36;;;;;;;2.80;2.70;;;;;;;;;;4936528;28;20223;-62
2022/06/07 03:14:23;;;;;;;2.87;2.77;;;;;;;;;;4936926;29;20223;-62
2022/06/07 03:17:11;;;;;;;2.50;2.40;;;;;;;;;;4936396;29;20692;-62
2022/06/07 03:19:59;;;;;;;2.60;2.50;;;;;;;;;;4939667;29;20207;-62
2022/06/07 03:22:46;;;;;;;2.50;2.40;;;;;;;;;;4939015;28;20212;-62
2022/06/07 03:25:33;;;;;;;2.70;2.60;;;;;;;;;;4941393;29;20204;-61
2022/06/07 03:28:20;;;;;;;2.53;2.43;;;;;;;;;;4945811;28;20211;-62
2022/06/07 03:31:12;;;;;;;2.70;2.57;;;;;;;;;;4937895;28;20235;-62
2022/06/07 03:33:59;;;;;;;2.60;2.50;;;;;;;;;;4949308;28;20211;-62
2022/06/07 03:36:47;;;;;;;2.43;2.33;;;;;;;;;;4940086;28;20586;-61
2022/06/07 03:39:34;;;;;;;2.77;2.60;;;;;;;;;;4947688;28;20219;-63
2022/06/07 03:42:22;;;;;;;2.50;2.40;;;;;;;;;;4944011;28;20227;-62
2022/06/07 03:45:09;;;;;;;2.70;2.60;;;;;;;;;;4946728;28;20225;-62
2022/06/07 03:47:56;;;;;;;2.93;2.77;;;;;;;;;;4941874;29;20212;-61
2022/06/07 03:50:43;;;;;;;2.47;2.37;;;;;;;;;;4948022;28;20204;-61
2022/06/07 03:53:32;;;;;;;2.70;2.60;;;;;;;;;;4941738;29;20212;-64
2022/06/07 03:56:21;;;;;;;2.70;2.60;;;;;;;;;;4943277;28;20219;-61
2022/06/07 03:59:08;;;;;;;2.90;2.80;;;;;;;;;;4946735;28;20339;-62
2022/06/07 04:01:55;;;;;;;2.57;2.47;;;;;;;;;;4946220;29;20229;-62
2022/06/07 04:04:42;;;;;;;2.70;2.60;;;;;;;;;;4940178;29;20223;-62
2022/06/07 04:10:34;;;;;;;2.87;2.73;;;;;;;;;;4941571;29;20342;-62
2022/06/07 04:13:25;;;;;;;2.80;2.60;;;;;;;;;;4943466;28;20241;-62
2022/06/07 04:16:14;;;;;;;3.03;2.90;;;;;;;;;;4945566;29;20218;-62
2022/06/07 04:19:01;;;;;;;2.80;2.70;;;;;;;;;;4942666;29;20213;-62
2022/06/07 04:21:49;;;;;;;2.73;2.60;;;;;;;;;;4944829;28;20210;-62
2022/06/07 04:24:36;;;;;;;2.70;2.60;;;;;;;;;;4942546;29;20246;-62
2022/06/07 04:27:24;;;;;;;2.60;2.50;;;;;;;;;;4943279;28;20224;-62
2022/06/07 04:30:13;;;;;;;2.67;2.57;;;;;;;;;;4944179;29;20216;-62
2022/06/07 04:33:00;;;;;;;2.70;2.60;;;;;;;;;;4947155;28;20297;-61
2022/06/07 04:35:47;;;;;;;2.60;2.50;;;;;;;;;;4946530;28;20587;-62
2022/06/07 04:38:34;;;;;;;3.10;2.97;;;;;;;;;;4940860;29;20203;-66
2022/06/07 04:41:23;;;;;;;3.20;2.90;;;;;;;;;;4943725;29;20214;-62
2022/06/07 04:44:11;;;;;;;2.67;2.57;;;;;;;;;;4943833;28;20233;-62
2022/06/07 04:46:58;;;;;;;2.60;2.50;;;;;;;;;;4946670;29;20245;-62
2022/06/07 04:49:45;;;;;;;2.50;2.40;;;;;;;;;;4948094;28;20228;-62
2022/06/07 04:52:33;;;;;;;2.97;2.87;;;;;;;;;;4945093;28;20233;-61
2022/06/07 04:55:20;;;;;;;2.60;2.50;;;;;;;;;;4942880;28;20563;-62
2022/06/07 04:58:07;;;;;;;3.00;2.90;;;;;;;;;;4942164;28;20285;-62
2022/06/07 05:00:55;;;;;;;2.90;2.80;;;;;;;;;;4942802;29;20231;-62
2022/06/07 05:03:43;;;;;;;2.57;2.47;;;;;;;;;;4949692;28;20283;-62
2022/06/07 05:06:34;;;;;;;2.67;2.57;;;;;;;;;;4942168;29;20221;-62
2022/06/07 05:09:22;;;;;;;2.73;2.53;;;;;;;;;;4945740;28;20211;-62
2022/06/07 05:12:09;;;;;;;2.70;2.60;;;;;;;;;;4945299;28;20379;-62
2022/06/07 05:14:56;;;;;;;2.40;2.30;;;;;;;;;;4941822;29;20226;-61
2022/06/07 05:17:46;;;;;;;2.90;2.80;;;;;;;;;;4941942;28;20208;-62
2022/06/07 05:20:34;;;;;;;2.63;2.53;;;;;;;;;;4943042;29;20207;-61
2022/06/07 05:23:21;;;;;;;3.23;3.00;;;;;;;;;;4943111;29;20214;-61
2022/06/07 05:26:11;;;;;;;2.70;2.60;;;;;;;;;;4943338;28;20212;-62
2022/06/07 05:28:58;;;;;;;3.00;2.90;;;;;;;;;;4940270;29;20211;-62
2022/06/07 05:31:46;;;;;;;2.50;2.40;;;;;;;;;;4942620;28;20255;-62
2022/06/07 05:34:35;;;;;;;2.53;2.43;;;;;;;;;;4935932;28;20210;-61
2022/06/07 05:37:24;;;;;;;2.40;2.30;;;;;;;;;;4940391;28;20211;-62
2022/06/07 05:40:12;;;;;;;2.67;2.57;;;;;;;;;;4940540;29;20285;-62
2022/06/07 05:42:59;;;;;;;2.70;2.60;;;;;;;;;;4939384;29;20564;-62
2022/06/07 05:45:48;;;;;;;2.80;2.60;;;;;;;;;;4939990;29;20210;-62
2022/06/07 05:48:35;;;;;;;2.50;2.40;;;;;;;;;;4940712;29;20227;-61
2022/06/07 05:51:23;;;;;;;2.77;2.67;;;;;;;;;;4938602;28;20245;-62
2022/06/07 05:54:12;;;;;;;2.50;2.40;;;;;;;;;;4944421;28;20210;-62
2022/06/07 05:57:00;;;;;;;2.90;2.80;;;;;;;;;;4944679;28;20226;-61
2022/06/07 05:59:47;;;;;;;2.60;2.50;;;;;;;;;;4940972;29;20212;-62
2022/06/07 06:02:34;;;;;;;3.00;2.90;;;;;;;;;;4947567;28;20557;-62
2022/06/07 06:05:21;;;;;;;2.47;2.33;;;;;;;;;;4940897;28;20221;-62
2022/06/07 06:11:19;;;;;;;2.60;2.50;;;;;;;;;;4940852;29;20206;-62
2022/06/07 06:14:06;;;;;;;2.80;2.70;;;;;;;;;;4942634;29;20578;-62
2022/06/07 06:16:54;;;;;;;2.30;2.20;;;;;;;;;;4942748;29;20251;-62
2022/06/07 06:19:41;;;;;;;2.60;2.50;;;;;;;;;;4945720;28;20221;-62
2022/06/07 06:22:28;;;;;;;2.65;2.45;;;;;;;;;;4945598;28;20205;-68
2022/06/07 06:25:16;;;;;;;2.60;2.50;;;;;;;;;;4941164;28;20304;-62
2022/06/07 06:28:04;;;;;;;2.45;2.35;;;;;;;;;;4943737;28;20211;-62
2022/06/07 06:30:51;;;;;;;2.60;2.50;;;;;;;;;;4944046;28;20217;-62
2022/06/07 06:33:38;;;;;;;2.60;2.50;;;;;;;;;;4941453;28;20230;-62
2022/06/07 06:36:28;;;;;;;2.80;2.70;;;;;;;;;;4943461;28;20214;-62
2022/06/07 06:39:15;;;;;;;2.63;2.43;;;;;;;;;;4944397;28;20682;-62
2022/06/07 06:42:04;;;;;;;2.58;2.47;;;;;;;;;;4939421;29;20378;-63
2022/06/07 06:44:51;;;;;;;2.67;2.58;;;;;;;;;;4941546;28;20603;-62
2022/06/07 06:47:38;;;;;;;2.60;2.50;;;;;;;;;;4942089;28;20208;-61
2022/06/07 06:50:25;;;;;;;2.65;2.45;;;;;;;;;;4937743;29;20204;-62
2022/06/07 06:53:13;;;;;;;2.38;2.28;;;;;;;;;;4942899;28;20233;-62
2022/06/07 06:56:00;;;;;;;2.70;2.60;;;;;;;;;;4940548;28;20203;-68
2022/06/07 06:58:49;;;;;;;2.60;2.40;;;;;;;;;;4943844;28;20599;-62
2022/06/07 07:01:39;;;;;;;2.33;2.22;;;;;;;;;;4940636;29;20700;-62
2022/06/07 07:04:26;;;;;;;2.25;2.15;;;;;;;;;;4943854;28;20217;-62
2022/06/07 07:07:13;;;;;;;2.40;2.30;;;;;;;;;;4944161;29;20221;-62
2022/06/07 07:10:00;;;;;;;2.55;2.45;;;;;;;;;;4943067;28;20214;-62
2022/06/07 07:12:48;;;;;;;2.60;2.50;;;;;;;;;;4946117;28;20233;-62
2022/06/07 07:15:36;;;;;;;2.70;2.60;;;;;;;;;;4944160;28;20210;-67
2022/06/07 07:18:23;;;;;;;2.67;2.57;;;;;;;;;;4944087;28;20222;-62
2022/06/07 07:21:14;;;;;;;2.40;2.30;;;;;;;;;;4942079;29;20221;-62
2022/06/07 07:24:02;;;;;;;2.40;2.30;;;;;;;;;;4941958;28;20290;-62
2022/06/07 07:26:50;;;;;;;2.80;2.70;;;;;;;;;;4942631;28;20208;-64
2022/06/07 07:29:39;;;;;;;2.30;2.20;;;;;;;;;;4945368;28;20213;-62
2022/06/07 07:32:27;;;;;;;2.43;2.33;;;;;;;;;;4946906;28;20611;-63
2022/06/07 07:35:14;;;;;;;2.17;2.07;;;;;;;;;;4943383;28;20209;-63
2022/06/07 07:38:01;;;;;;;2.50;2.37;;;;;;;;;;4941248;28;20612;-63
2022/06/07 07:40:48;;;;;;;2.40;2.30;;;;;;;;;;4946387;28;20219;-62
2022/06/07 07:43:35;;;;;;;2.63;2.53;;;;;;;;;;4945442;29;20567;-63
2022/06/07 07:46:24;;;;;;;2.53;2.43;;;;;;;;;;4940285;29;20588;-66
2022/06/07 07:49:15;;;;;;;2.80;2.70;;;;;;;;;;4944797;28;20583;-62
2022/06/07 07:52:03;;;;;;;2.73;2.63;;;;;;;;;;4944230;28;20207;-62
2022/06/07 07:54:50;;;;;;;2.20;2.10;;;;;;;;;;4943453;28;20234;-62
2022/06/07 07:57:38;;;;;;;2.73;2.63;;;;;;;;;;4941797;28;20223;-63
2022/06/07 08:00:26;;;;;;;2.47;2.37;;;;;;;;;;4945697;29;20601;-62
2022/06/07 08:03:14;;;;;;;2.73;2.63;;;;;;;;;;4948118;28;20691;-63
2022/06/07 08:06:03;;;;;;;2.60;2.50;;;;;;;;;;4946212;29;20212;-63
2022/06/07 08:08:53;;;;;;;2.57;2.47;;;;;;;;;;4946072;29;20219;-62
2022/06/07 08:11:42;;;;;;;2.50;2.40;;;;;;;;;;4941085;28;20298;-62
2022/06/07 08:14:29;;;;;;;2.73;2.63;;;;;;;;;;4944137;29;20216;-62
2022/06/07 08:17:16;;;;;;;2.40;2.30;;;;;;;;;;4943839;28;20219;-82
2022/06/07 08:20:05;;;;;;;2.33;2.23;;;;;;;;;;4943809;28;20221;-62
2022/06/07 08:22:53;;;;;;;2.73;2.60;;;;;;;;;;4943633;29;20215;-62
2022/06/07 08:25:40;;;;;;;2.73;2.63;;;;;;;;;;4942902;28;20217;-62
2022/06/07 08:28:28;;;;;;;2.50;2.40;;;;;;;;;;4941958;28;20213;-62
2022/06/07 08:31:18;;;;;;;2.70;2.60;;;;;;;;;;4941437;29;20219;-63
2022/06/07 08:40:29;;;;;;;2.60;2.50;;;;;;;;;;4940697;28;20221;-63
2022/06/07 08:43:20;;;;;;;2.60;2.50;;;;;;;;;;4940782;28;20597;-68
2022/06/07 08:46:11;;;;;;;2.67;2.57;;;;;;;;;;4943150;28;20221;-62
2022/06/07 08:48:58;;;;;;;3.23;3.03;;;;;;;;;;4943977;28;20205;-62
2022/06/07 08:51:51;;;;;;;2.60;2.50;;;;;;;;;;4943598;28;20214;-62
2022/06/07 08:54:42;;;;;;;2.60;2.50;;;;;;;;;;4945570;28;20225;-62
2022/06/07 08:57:36;;;;;;;3.10;3.00;;;;;;;;;;4939736;28;20212;-62
2022/06/07 09:00:27;;;;;;;2.80;2.60;;;;;;;;;;4943167;28;20230;-62
2022/06/07 09:03:39;;;;;;;2.50;2.40;;;;;;;;;;4942935;28;20214;-62
2022/06/07 09:06:30;;;;;;;2.40;2.30;;;;;;;;;;4939997;28;20209;-62
2022/06/07 09:09:20;;;;;;;2.77;2.67;;;;;;;;;;4940378;29;20236;-62
2022/06/07 09:12:14;;;;;;;2.40;2.30;;;;;;;;;;4937827;29;20588;-62
2022/06/07 09:15:13;;;;;;;2.70;2.53;;;;;;;;;;4941540;28;20239;-62
2022/06/07 09:18:03;;;;;;;2.30;2.20;;;;;;;;;;4944251;28;20219;-62
2022/06/07 09:20:54;;;;;;;2.27;2.17;;;;;;;;;;4941740;29;20222;-61
2022/06/07 09:23:45;;;;;;;2.50;2.40;;;;;;;;;;4937404;29;20212;-61
2022/06/07 09:26:38;;;;;;;2.40;2.30;;;;;;;;;;4940563;28;20215;-62
2022/06/07 09:29:27;;;;;;;2.53;2.43;;;;;;;;;;4940070;28;20220;-61
2022/06/07 09:32:19;;;;;;;2.50;2.40;;;;;;;;;;4940100;28;20248;-62
2022/06/07 09:35:10;;;;;;;2.50;2.40;;;;;;;;;;4940653;28;20207;-62
2022/06/07 09:38:01;;;;;;;2.43;2.33;;;;;;;;;;4942193;29;20209;-62
2022/06/07 09:40:56;;;;;;;2.40;2.30;;;;;;;;;;4940823;28;20212;-62
2022/06/07 09:43:45;;;;;;;2.37;2.27;;;;;;;;;;4937554;29;20624;-62
2022/06/07 09:46:32;;;;;;;2.17;2.07;;;;;;;;;;4942150;29;20563;-62
2022/06/07 09:49:32;;;;;;;2.37;2.27;;;;;;;;;;4940720;28;20219;-62
2022/06/07 09:52:23;;;;;;;2.30;2.20;;;;;;;;;;4939482;28;20206;-62
2022/06/07 09:55:21;;;;;;;2.40;2.30;;;;;;;;;;4940343;28;20221;-61
2022/06/07 09:58:33;;;;;;;2.57;2.47;;;;;;;;;;4941543;28;20212;-62
2022/06/07 10:01:26;;;;;;;2.47;2.37;;;;;;;;;;4936607;29;20234;-61
2022/06/07 10:04:20;;;;;;;2.67;2.50;;;;;;;;;;4943679;28;20201;-62
2022/06/07 10:07:15;;;;;;;2.60;2.50;;;;;;;;;;4939405;28;20575;-62
2022/06/07 10:10:08;;;;;;;2.30;2.20;;;;;;;;;;4937753;29;20217;-62
2022/06/07 10:13:07;;;;;;;2.37;2.27;;;;;;;;;;4940804;28;21753;-62
2022/06/07 10:16:03;;;;;;;2.30;2.20;;;;;;;;;;4943468;28;20222;-61
2022/06/07 10:18:59;;;;;;;2.33;2.23;;;;;;;;;;4940754;29;20206;-62
2022/06/07 10:22:12;;;;;;;2.10;2.00;;;;;;;;;;4938840;28;20754;-61
2022/06/07 10:25:13;;;;;;;2.30;2.20;;;;;;;;;;4941677;28;20207;-62
2022/06/07 10:28:08;;;;;;;2.43;2.33;;;;;;;;;;4937637;29;20238;-61
2022/06/07 10:31:03;;;;;;;2.40;2.30;;;;;;;;;;4936922;28;20214;-61
2022/06/07 10:33:54;;;;;;;2.40;2.30;;;;;;;;;;4939362;28;20232;-61
2022/06/07 10:36:48;;;;;;;2.33;2.23;;;;;;;;;;4939444;28;20207;-62
2022/06/07 10:40:00;;;;;;;2.43;2.33;;;;;;;;;;4940212;29;20214;-62
2022/06/07 10:42:53;;;;;;;2.30;2.20;;;;;;;;;;4941865;28;20215;-62
2022/06/07 10:45:40;;;;;;;2.43;2.33;;;;;;;;;;4942905;28;20218;-62
2022/06/07 10:48:33;;;;;;;2.30;2.20;;;;;;;;;;4943397;29;20214;-61
2022/06/07 10:54:32;;;;;;;2.30;2.20;;;;;;;;;;4942138;28;20234;-62
2022/06/07 10:57:25;;;;;;;2.30;2.20;;;;;;;;;;4943508;29;20207;-62
2022/06/07 11:00:30;;;;;;;2.40;2.30;;;;;;;;;;4937820;28;20780;-61
2022/06/07 11:03:26;;;;;;;2.37;2.27;;;;;;;;;;4945196;28;20217;-61
2022/06/07 11:09:37;;;;;;;2.50;2.40;;;;;;;;;;4943979;29;20228;-61
2022/06/07 11:12:27;;;;;;;2.23;2.13;;;;;;;;;;4942989;29;20249;-62
2022/06/07 11:15:19;;;;;;;2.47;2.37;;;;;;;;;;4938657;29;20277;-62
2022/06/07 11:18:12;;;;;;;2.47;2.37;;;;;;;;;;4943856;29;20213;-62
2022/06/07 11:21:13;;;;;;;2.23;2.13;;;;;;;;;;4938767;28;20218;-62
2022/06/07 11:24:17;;;;;;;2.40;2.30;;;;;;;;;;4945789;29;20205;-62
2022/06/07 11:27:21;;;;;;;2.00;1.90;;;;;;;;;;4942590;28;20225;-61
2022/06/07 11:30:34;;;;;;;2.27;2.17;;;;;;;;;;4938866;29;20206;-61
2022/06/07 11:33:41;;;;;;;2.25;2.15;;;;;;;;;;4950197;28;20309;-61
2022/06/07 11:36:38;;;;;;;2.50;2.40;;;;;;;;;;4941333;29;20221;-61
2022/06/07 11:39:32;;;;;;;2.20;2.10;;;;;;;;;;4940016;29;20570;-61
2022/06/07 11:42:30;;;;;;;2.30;2.20;;;;;;;;;;4937713;29;20203;-62
2022/06/07 11:45:24;;;;;;;2.20;2.10;;;;;;;;;;4941016;29;20207;-62
2022/06/07 11:48:24;;;;;;;2.10;2.00;;;;;;;;;;4940295;28;20206;-62
2022/06/07 11:51:18;;;;;;;2.08;1.98;;;;;;;;;;4939907;28;20207;-62
2022/06/07 11:54:08;;;;;;;2.28;2.17;;;;;;;;;;4942275;28;20219;-62
2022/06/07 11:56:58;;;;;;;2.20;2.10;;;;;;;;;;4941075;28;20238;-62
2022/06/07 11:59:47;;;;;;;1.80;1.80;;;;;;;;;;4942307;28;20245;-62
2022/06/07 12:02:36;;;;;;;2.30;2.20;;;;;;;;;;4936426;28;20221;-61
2022/06/07 12:05:28;;;;;;;2.13;2.03;;;;;;;;;;4940129;28;20221;-61
2022/06/07 12:08:24;;;;;;;2.15;2.08;;;;;;;;;;4940749;28;20215;-62
2022/06/07 12:11:21;;;;;;;2.28;2.17;;;;;;;;;;4942223;29;20215;-62
2022/06/07 12:14:24;;;;;;;2.20;2.10;;;;;;;;;;4940862;29;20235;-61
2022/06/07 12:17:21;;;;;;;1.98;1.88;;;;;;;;;;4943164;28;20205;-62
2022/06/07 12:20:24;;;;;;;2.25;2.15;;;;;;;;;;4943407;28;20219;-61
2022/06/07 12:23:22;;;;;;;1.88;1.88;;;;;;;;;;4939657;29;20212;-61
2022/06/07 12:26:19;;;;;;;2.20;2.10;;;;;;;;;;4938186;29;20537;-62
2022/06/07 12:29:18;;;;;;;2.30;2.20;;;;;;;;;;4943522;29;20221;-62
2022/06/07 12:32:07;;;;;;;1.98;1.88;;;;;;;;;;4941191;28;20541;-62
2022/06/07 12:35:19;;;;;;;2.20;2.10;;;;;;;;;;4941874;28;20232;-62
2022/06/07 12:38:14;;;;;;;2.33;2.22;;;;;;;;;;4945326;29;20702;-62
2022/06/07 12:41:05;;;;;;;2.22;2.13;;;;;;;;;;4941837;28;20211;-61
2022/06/07 12:43:56;;;;;;;2.35;2.25;;;;;;;;;;4939191;29;20282;-61
2022/06/07 12:46:46;;;;;;;1.80;1.80;;;;;;;;;;4943791;29;20217;-61
2022/06/07 12:49:41;;;;;;;2.08;1.98;;;;;;;;;;4940864;29;20281;-61
2022/06/07 12:52:31;;;;;;;2.00;1.90;;;;;;;;;;4943662;28;20711;-62
2022/06/07 12:55:22;;;;;;;1.90;1.90;;;;;;;;;;4943857;28;20305;-61
2022/06/07 12:58:19;;;;;;;1.80;1.80;;;;;;;;;;4938534;28;20203;-62
2022/06/07 13:01:21;;;;;;;1.85;1.80;;;;;;;;;;4937502;28;20231;-61
2022/06/07 13:04:18;;;;;;;1.80;1.80;;;;;;;;;;4941560;28;20588;-62
2022/06/07 13:07:22;;;;;;;2.00;1.90;;;;;;;;;;4942742;29;20218;-61
2022/06/07 13:10:13;;;;;;;2.00;1.90;;;;;;;;;;4945359;28;20741;-61
2022/06/07 13:13:05;;;;;;;1.95;1.85;;;;;;;;;;4942449;28;20241;-62
2022/06/07 13:15:58;;;;;;;2.08;1.98;;;;;;;;;;4941953;29;20215;-61
2022/06/07 13:18:59;;;;;;;1.70;1.70;;;;;;;;;;4941282;28;20571;-62
2022/06/07 13:21:52;;;;;;;1.90;1.85;;;;;;;;;;4933145;29;20211;-61
2022/06/07 13:24:43;;;;;;;1.70;1.70;;;;;;;;;;4946513;28;20583;-61
2022/06/07 13:27:44;;;;;;;1.75;1.75;;;;;;;;;;4936296;28;20210;-61
2022/06/07 13:30:40;;;;;;;1.80;1.77;;;;;;;;;;4942400;28;20291;-61
2022/06/07 13:33:32;;;;;;;1.88;1.77;;;;;;;;;;4945055;28;20555;-61
2022/06/07 13:36:34;;;;;;;1.65;1.65;;;;;;;;;;4940368;28;20213;-61
2022/06/07 13:39:24;;;;;;;1.70;1.70;;;;;;;;;;4942748;29;20289;-62
2022/06/07 13:42:20;;;;;;;1.65;1.65;;;;;;;;;;4944254;28;20234;-62
2022/06/07 13:45:24;;;;;;;1.85;1.85;;;;;;;;;;4943211;28;20221;-62
2022/06/07 13:48:19;;;;;;;1.58;1.58;;;;;;;;;;4940698;28;20226;-62
2022/06/07 13:54:27;;;;;;;2.00;1.90;;;;;;;;;;4944167;28;20266;-61
2022/06/07 13:57:14;;;;;;;1.63;1.60;;;;;;;;;;4943759;29;20223;-62
2022/06/07 14:00:02;;;;;;;1.93;1.83;;;;;;;;;;4939999;29;20221;-61
2022/06/07 14:02:50;;;;;;;1.52;1.52;;;;;;;;;;4941852;28;20219;-61
2022/06/07 14:05:37;;;;;;;1.70;1.70;;;;;;;;;;4939425;29;20206;-62
2022/06/07 14:08:26;;;;;;;2.08;1.98;;;;;;;;;;4944667;29;20209;-62
2022/06/07 14:11:13;;;;;;;1.90;1.80;;;;;;;;;;4941023;28;20223;-61
2022/06/07 14:14:00;;;;;;;1.60;1.60;;;;;;;;;;4941389;29;20661;-61
2022/06/07 14:16:51;;;;;;;1.70;1.70;;;;;;;;;;4941858;28;20207;-61
2022/06/07 14:19:41;;;;;;;2.10;2.00;;;;;;;;;;4941552;29;20216;-61
2022/06/07 14:22:32;;;;;;;1.80;1.80;;;;;;;;;;4941773;28;20663;-61
2022/06/07 14:25:23;;;;;;;1.90;1.80;;;;;;;;;;4945808;28;20677;-61
2022/06/07 14:28:18;;;;;;;1.30;1.30;;;;;;;;;;4940337;28;20294;-62
2022/06/07 14:31:13;;;;;;;1.80;1.70;;;;;;;;;;4939609;29;20214;-61
2022/06/07 14:34:00;;;;;;;1.90;1.80;;;;;;;;;;4943675;28;20215;-61
2022/06/07 14:36:48;;;;;;;2.23;2.13;;;;;;;;;;4940448;28;20205;-61
2022/06/07 14:39:36;;;;;;;1.50;1.50;;;;;;;;;;4939274;28;20583;-61
2022/06/07 14:42:25;;;;;;;1.30;1.30;;;;;;;;;;4936019;29;20602;-62
2022/06/07 14:45:13;;;;;;;1.60;1.60;;;;;;;;;;4937720;29;20204;-61
2022/06/07 14:48:03;;;;;;;2.10;2.00;;;;;;;;;;4939074;28;20730;-61
2022/06/07 14:50:50;;;;;;;1.60;1.60;;;;;;;;;;4939739;28;20344;-62
2022/06/07 14:53:37;;;;;;;1.53;1.53;;;;;;;;;;4938567;28;20221;-62
2022/06/07 14:56:27;;;;;;;1.63;1.63;;;;;;;;;;4941074;29;20214;-62
2022/06/07 14:59:16;;;;;;;1.40;1.40;;;;;;;;;;4941095;28;20290;-62
2022/06/07 15:02:10;;;;;;;1.47;1.47;;;;;;;;;;4941010;29;20721;-62
2022/06/07 15:05:02;;;;;;;1.60;1.60;;;;;;;;;;4939386;28;20214;-61
2022/06/07 15:07:53;;;;;;;1.60;1.60;;;;;;;;;;4941650;28;20233;-61
2022/06/07 15:10:40;;;;;;;1.80;1.70;;;;;;;;;;4937677;28;20209;-61
2022/06/07 15:13:31;;;;;;;1.60;1.60;;;;;;;;;;4943392;29;20290;-61
2022/06/07 15:16:19;;;;;;;1.47;1.47;;;;;;;;;;4940727;28;20331;-63
2022/06/07 15:19:11;;;;;;;1.57;1.57;;;;;;;;;;4938321;28;20217;-62
2022/06/07 15:21:59;;;;;;;1.70;1.60;;;;;;;;;;4937064;29;20226;-61
2022/06/07 15:24:46;;;;;;;1.83;1.80;;;;;;;;;;4941674;28;20640;-61
2022/06/07 15:27:33;;;;;;;1.70;1.70;;;;;;;;;;4941398;28;20270;-64
2022/06/07 15:30:21;;;;;;;1.57;1.53;;;;;;;;;;4940525;28;20658;-61
2022/06/07 15:33:10;;;;;;;1.60;1.50;;;;;;;;;;4943754;28;20215;-61
2022/06/07 15:35:58;;;;;;;1.47;1.47;;;;;;;;;;4947311;29;20224;-61
2022/06/07 15:38:49;;;;;;;1.23;1.23;;;;;;;;;;4941252;29;20709;-61
2022/06/07 15:44:40;;;;;;;1.50;1.50;;;;;;;;;;4940352;28;20289;-61
2022/06/07 15:47:28;;;;;;;1.50;1.50;;;;;;;;;;4944826;28;20210;-61
2022/06/07 15:50:19;;;;;;;1.63;1.53;;;;;;;;;;4941165;29;20210;-61
2022/06/07 15:53:07;;;;;;;1.40;1.40;;;;;;;;;;4944799;28;20222;-62
2022/06/07 15:55:54;;;;;;;1.23;1.23;;;;;;;;;;4942492;28;20219;-62
2022/06/07 16:01:47;;;;;;;1.67;1.63;;;;;;;;;;4939243;29;20286;-62
2022/06/07 16:04:34;;;;;;;1.60;1.60;;;;;;;;;;4940695;28;20592;-61
2022/06/07 16:07:22;;;;;;;1.67;1.67;;;;;;;;;;4944084;28;20226;-63
2022/06/07 16:10:10;;;;;;;1.40;1.40;;;;;;;;;;4947933;28;20657;-62
2022/06/07 16:12:57;;;;;;;1.30;1.30;;;;;;;;;;4940664;28;20241;-62
2022/06/07 16:15:47;;;;;;;1.40;1.40;;;;;;;;;;4937048;28;20217;-61
2022/06/07 16:18:34;;;;;;;1.50;1.40;;;;;;;;;;4942326;28;20224;-61
2022/06/07 16:21:22;;;;;;;1.57;1.57;;;;;;;;;;4940838;28;20201;-62
2022/06/07 16:24:11;;;;;;;1.40;1.40;;;;;;;;;;4942885;28;20202;-61
2022/06/07 16:26:58;;;;;;;1.30;1.30;;;;;;;;;;4940478;28;20217;-61
2022/06/07 16:35:54;;;;;;;1.50;1.43;;;;;;;;;;4945688;28;20249;-61
2022/06/07 16:38:44;;;;;;;1.50;1.50;;;;;;;;;;4944249;28;20222;-61
2022/06/07 16:41:33;;;;;;;1.37;1.37;;;;;;;;;;4942370;29;20581;-61
2022/06/07 16:44:20;;;;;;;1.30;1.30;;;;;;;;;;4940509;29;20377;-61
2022/06/07 16:47:09;;;;;;;1.20;1.20;;;;;;;;;;4938805;28;20589;-61
2022/06/07 16:49:56;;;;;;;1.50;1.50;;;;;;;;;;4944149;28;20297;-61
2022/06/07 16:52:43;;;;;;;1.10;1.10;;;;;;;;;;4942879;29;20208;-61
2022/06/07 16:55:30;;;;;;;1.50;1.50;;;;;;;;;;4939259;29;20225;-61
2022/06/07 16:58:20;;;;;;;1.20;1.20;;;;;;;;;;4940690;28;20823;-61
2022/06/07 17:01:08;;;;;;;1.20;1.20;;;;;;;;;;4945546;28;20719;-61
2022/06/07 17:03:56;;;;;;;1.60;1.60;;;;;;;;;;4943535;28;20606;-61
2022/06/07 17:06:44;;;;;;;1.47;1.40;;;;;;;;;;4939197;29;20210;-61
2022/06/07 17:09:31;;;;;;;1.30;1.30;;;;;;;;;;4942065;28;20760;-61
2022/06/07 17:12:19;;;;;;;1.50;1.50;;;;;;;;;;4944041;28;20250;-61
2022/06/07 17:15:08;;;;;;;1.07;1.07;;;;;;;;;;4943165;28;20245;-61
2022/06/07 17:17:55;;;;;;;1.40;1.37;;;;;;;;;;4944627;28;20214;-61
2022/06/07 17:20:43;;;;;;;1.50;1.50;;;;;;;;;;4940385;28;20222;-61
2022/06/07 17:23:32;;;;;;;1.63;1.53;;;;;;;;;;4947538;28;20294;-61
2022/06/07 17:26:22;;;;;;;1.73;1.63;;;;;;;;;;4942871;28;20207;-61
2022/06/07 17:29:11;;;;;;;1.47;1.37;;;;;;;;;;4944698;29;20228;-61
2022/06/07 17:32:00;;;;;;;1.80;1.70;;;;;;;;;;4943918;28;20205;-61
2022/06/07 17:34:47;;;;;;;1.37;1.37;;;;;;;;;;4948613;28;20214;-61
2022/06/07 17:37:34;;;;;;;1.10;1.10;;;;;;;;;;4942862;29;20399;-61
2022/06/07 17:40:25;;;;;;;1.60;1.60;;;;;;;;;;4940118;28;20209;-61